KLGC/LGC METAR and TAF weather

Enter ICAO airport designator
Station Type Date Time Source
KLGC METAR 2019/08/22 20:35 UTC NOAA

KLGC 222035Z AUTO 20010G14KT 10SM SCT060 35/18 A3000 RMK AO2 T03500176


Station Type Date Time Source
KLGC Decoded METAR 2019/08/22 20:35 UTC NOAA

Station name not available
Aug 22, 2019 - 04:35 PM EDT / 2019.08.22 2035 UTC
Wind: from the SSW (200 degrees) at 12 MPH (10 KT) gusting to 16 MPH (14 KT):0
Visibility: 10 mile(s):0
Sky conditions: partly cloudy
Temperature: 95.0 F (35.0 C)
Heat index: 96.4 F (35.8 C):1
Dew Point: 63.7 F (17.6 C)
Relative Humidity: 35%
Pressure (altimeter): 30 in. Hg (1015 hPa)
ob: KLGC 222035Z AUTO 20010G14KT 10SM SCT060 35/18 A3000 RMK AO2 T03500176
cycle: 20

Station Type Date Time Source
KLGC TAF UTC NOAA

Error!

Example: see airport list